Time;durP1;ratioP1;P1;durP2;ratioP2;P2;SDS_P1;SDS_P2;PMS_P1;PMS_P2;Temp;Humidity;BMP_temperature;BMP_pressure;BME280_temperature;BME280_humidity;BME280_pressure;Samples;Min_cycle;Max_cycle;Signal;HPM_P1;HPM_P2
2023/01/31 00:00:19;;;;;;;18.45;4.18;;;;;;;;;;5012611;28;20133;-88
2023/01/31 00:02:45;;;;;;;15.25;4.65;;;;;;;;;;5011524;28;20450;-88
2023/01/31 00:05:11;;;;;;;25.08;4.80;;;;;;;;;;4985244;28;20507;-88
2023/01/31 00:07:37;;;;;;;17.13;4.95;;;;;;;;;;4977781;28;20042;-88
2023/01/31 00:10:06;;;;;;;23.13;5.75;;;;;;;;;;4979386;28;20387;-88
2023/01/31 00:12:32;;;;;;;23.88;4.72;;;;;;;;;;4996778;28;20093;-88
2023/01/31 00:14:59;;;;;;;21.80;4.38;;;;;;;;;;4978194;28;20124;-88
2023/01/31 00:17:28;;;;;;;15.38;3.75;;;;;;;;;;4982283;28;20057;-88
2023/01/31 00:19:54;;;;;;;25.38;5.25;;;;;;;;;;5015848;28;20034;-87
2023/01/31 00:22:20;;;;;;;15.93;4.28;;;;;;;;;;4989630;28;20394;-88
2023/01/31 00:24:46;;;;;;;26.83;4.60;;;;;;;;;;5016789;28;20046;-88
2023/01/31 00:27:12;;;;;;;15.60;3.60;;;;;;;;;;5010877;28;20192;-88
2023/01/31 00:29:38;;;;;;;20.48;4.45;;;;;;;;;;4992972;28;20541;-88
2023/01/31 00:32:04;;;;;;;15.73;3.70;;;;;;;;;;5016340;28;20133;-88
2023/01/31 00:34:30;;;;;;;16.65;3.45;;;;;;;;;;4996502;28;20421;-88
2023/01/31 00:36:56;;;;;;;19.17;4.40;;;;;;;;;;4993986;28;20057;-88
2023/01/31 00:39:25;;;;;;;20.65;4.15;;;;;;;;;;4990835;28;20065;-88
2023/01/31 00:41:53;;;;;;;14.52;3.75;;;;;;;;;;4995237;28;20035;-88
2023/01/31 00:44:19;;;;;;;17.05;4.63;;;;;;;;;;4983014;28;20070;-88
2023/01/31 00:46:45;;;;;;;25.15;3.97;;;;;;;;;;5014532;28;20461;-85
2023/01/31 00:49:11;;;;;;;15.60;3.97;;;;;;;;;;4989520;28;20038;-88
2023/01/31 00:51:37;;;;;;;23.33;4.18;;;;;;;;;;4982767;28;20129;-88
2023/01/31 00:54:04;;;;;;;18.83;4.30;;;;;;;;;;4979190;28;22633;-88
2023/01/31 00:56:30;;;;;;;20.40;4.22;;;;;;;;;;5012908;28;20106;-87
2023/01/31 00:58:56;;;;;;;16.30;4.22;;;;;;;;;;4977699;28;20038;-88
2023/01/31 01:01:23;;;;;;;19.27;4.80;;;;;;;;;;4999821;28;20544;-88
2023/01/31 01:03:49;;;;;;;18.45;3.88;;;;;;;;;;4987312;28;20039;-87
2023/01/31 01:06:18;;;;;;;17.25;3.72;;;;;;;;;;4988378;28;20518;-88
2023/01/31 01:08:44;;;;;;;18.10;3.75;;;;;;;;;;4993500;28;20053;-88
2023/01/31 01:11:12;;;;;;;17.88;3.92;;;;;;;;;;5010919;28;20050;-87
2023/01/31 01:13:41;;;;;;;18.38;3.90;;;;;;;;;;4977880;28;20046;-85
2023/01/31 01:16:12;;;;;;;17.90;3.42;;;;;;;;;;4989004;28;20093;-87
2023/01/31 01:18:38;;;;;;;18.85;4.82;;;;;;;;;;4997571;28;20038;-87
2023/01/31 01:21:04;;;;;;;15.52;3.80;;;;;;;;;;4982254;28;20477;-86
2023/01/31 01:23:30;;;;;;;16.30;3.67;;;;;;;;;;4978056;28;20035;-88
2023/01/31 01:25:56;;;;;;;25.13;4.15;;;;;;;;;;4988419;28;20042;-88
2023/01/31 01:28:22;;;;;;;16.48;3.22;;;;;;;;;;4988422;28;20042;-87
2023/01/31 01:30:48;;;;;;;13.80;3.58;;;;;;;;;;4977104;28;20494;-87
2023/01/31 01:33:14;;;;;;;19.90;3.90;;;;;;;;;;4977777;28;20047;-88
2023/01/31 01:35:40;;;;;;;18.25;3.38;;;;;;;;;;5010553;28;20101;-88
2023/01/31 01:38:06;;;;;;;16.38;3.97;;;;;;;;;;4979062;28;20035;-88
2023/01/31 01:40:36;;;;;;;15.52;4.03;;;;;;;;;;5006496;28;20487;-87
2023/01/31 01:43:03;;;;;;;14.05;3.50;;;;;;;;;;4978991;28;20053;-88
2023/01/31 01:45:29;;;;;;;20.38;3.80;;;;;;;;;;4979322;28;20046;-87
2023/01/31 01:47:58;;;;;;;17.92;3.90;;;;;;;;;;5000776;28;20109;-87
2023/01/31 01:50:29;;;;;;;14.15;3.17;;;;;;;;;;4989052;28;20126;-88
2023/01/31 01:53:00;;;;;;;18.95;4.00;;;;;;;;;;5021187;28;20047;-87
2023/01/31 01:55:34;;;;;;;16.98;4.03;;;;;;;;;;4991045;28;20078;-88
2023/01/31 01:58:04;;;;;;;13.00;3.45;;;;;;;;;;4993524;28;20137;-87
2023/01/31 02:00:31;;;;;;;16.20;3.63;;;;;;;;;;4994102;28;20129;-88
2023/01/31 02:02:58;;;;;;;14.38;3.95;;;;;;;;;;4991402;28;20434;-87
2023/01/31 02:05:28;;;;;;;20.77;4.65;;;;;;;;;;5022395;28;20089;-88
2023/01/31 02:07:54;;;;;;;17.33;4.20;;;;;;;;;;4994556;28;20486;-87
2023/01/31 02:10:26;;;;;;;19.52;4.28;;;;;;;;;;4991811;28;20046;-88
2023/01/31 02:12:52;;;;;;;25.08;5.00;;;;;;;;;;4995135;28;20034;-87
2023/01/31 02:15:18;;;;;;;19.00;4.63;;;;;;;;;;4975276;28;20375;-87
2023/01/31 02:17:44;;;;;;;30.00;5.95;;;;;;;;;;4981373;28;20039;-87
2023/01/31 02:20:23;;;;;;;18.95;4.75;;;;;;;;;;4974641;28;20043;-88
2023/01/31 02:23:02;;;;;;;28.10;6.13;;;;;;;;;;4977822;28;20398;-87
2023/01/31 02:25:37;;;;;;;20.80;6.28;;;;;;;;;;4987063;28;20077;-87
2023/01/31 02:28:19;;;;;;;24.05;5.53;;;;;;;;;;4978069;28;20486;-87
2023/01/31 02:31:00;;;;;;;34.47;6.18;;;;;;;;;;5005760;28;20054;-87
2023/01/31 02:33:32;;;;;;;23.70;5.95;;;;;;;;;;4978232;28;20046;-87
2023/01/31 02:36:10;;;;;;;27.48;5.68;;;;;;;;;;4975348;28;20050;-88
2023/01/31 02:38:39;;;;;;;24.15;6.18;;;;;;;;;;4976015;28;20038;-87
2023/01/31 02:41:17;;;;;;;26.20;6.25;;;;;;;;;;4974702;28;20070;-87
2023/01/31 02:44:58;;;;;;;24.27;6.07;;;;;;;;;;4979638;28;20070;-87
2023/01/31 02:46:36;;;;;;;28.20;6.57;;;;;;;;;;4975087;28;20075;-87
2023/01/31 02:49:12;;;;;;;24.45;6.28;;;;;;;;;;4978044;28;20047;-87
2023/01/31 02:51:41;;;;;;;34.50;7.65;;;;;;;;;;5008003;28;20055;-87
2023/01/31 02:54:20;;;;;;;24.83;6.45;;;;;;;;;;4973668;28;20077;-87
2023/01/31 02:56:47;;;;;;;20.98;5.90;;;;;;;;;;5006121;28;20055;-87
2023/01/31 02:59:21;;;;;;;25.05;6.30;;;;;;;;;;5008761;28;20046;-87
2023/01/31 03:01:50;;;;;;;22.92;6.25;;;;;;;;;;4982400;28;20050;-87
2023/01/31 03:04:16;;;;;;;23.25;6.03;;;;;;;;;;4980421;28;20035;-87
2023/01/31 03:07:00;;;;;;;19.63;5.80;;;;;;;;;;4975494;28;20042;-88
2023/01/31 03:09:35;;;;;;;25.45;5.32;;;;;;;;;;4977772;28;20047;-87
2023/01/31 03:12:22;;;;;;;24.35;5.30;;;;;;;;;;4978629;28;20077;-87
2023/01/31 03:14:55;;;;;;;24.58;5.35;;;;;;;;;;5004059;28;20413;-87
2023/01/31 03:17:32;;;;;;;28.88;7.65;;;;;;;;;;4978411;28;20133;-87
2023/01/31 03:20:11;;;;;;;24.88;5.53;;;;;;;;;;4979982;28;20517;-87
2023/01/31 03:22:43;;;;;;;35.45;5.57;;;;;;;;;;4987986;28;20097;-87
2023/01/31 03:25:11;;;;;;;23.60;5.35;;;;;;;;;;4978715;28;20053;-88
2023/01/31 03:27:39;;;;;;;18.05;5.22;;;;;;;;;;4988524;28;20039;-87
2023/01/31 03:30:18;;;;;;;24.42;5.40;;;;;;;;;;5028868;28;20581;-87
2023/01/31 03:32:48;;;;;;;26.70;5.97;;;;;;;;;;4999361;28;20509;-87
2023/01/31 03:35:14;;;;;;;25.90;5.70;;;;;;;;;;4986957;28;20057;-87
2023/01/31 03:37:43;;;;;;;21.42;5.50;;;;;;;;;;5020764;28;20101;-87
2023/01/31 03:40:09;;;;;;;24.60;5.97;;;;;;;;;;4993846;28;20038;-87
2023/01/31 03:42:47;;;;;;;21.48;5.85;;;;;;;;;;4990125;28;20030;-87
2023/01/31 03:45:17;;;;;;;24.10;4.95;;;;;;;;;;5007396;28;20566;-87
2023/01/31 03:47:45;;;;;;;19.73;5.47;;;;;;;;;;4993995;28;20050;-87
2023/01/31 03:50:12;;;;;;;26.15;6.07;;;;;;;;;;4996326;28;20125;-87
2023/01/31 03:52:44;;;;;;;22.83;6.03;;;;;;;;;;4989942;28;20112;-87
2023/01/31 03:55:14;;;;;;;23.17;5.75;;;;;;;;;;4972226;28;20042;-87
2023/01/31 03:57:51;;;;;;;18.95;5.00;;;;;;;;;;4990096;28;20046;-87
2023/01/31 04:00:19;;;;;;;33.05;7.00;;;;;;;;;;4996486;28;20039;-87
2023/01/31 04:02:47;;;;;;;31.08;6.70;;;;;;;;;;4978814;28;20054;-84
2023/01/31 04:05:16;;;;;;;23.67;6.03;;;;;;;;;;4981875;28;20177;-88
2023/01/31 04:07:42;;;;;;;30.85;6.15;;;;;;;;;;4987001;28;20061;-87
2023/01/31 04:10:13;;;;;;;27.40;6.55;;;;;;;;;;4995168;28;20371;-87
2023/01/31 04:12:39;;;;;;;29.92;6.10;;;;;;;;;;4987599;28;20045;-87
2023/01/31 04:15:05;;;;;;;40.28;7.18;;;;;;;;;;5010248;28;20046;-87
2023/01/31 04:17:32;;;;;;;20.05;5.30;;;;;;;;;;4984939;28;20065;-87
2023/01/31 04:19:58;;;;;;;26.52;5.78;;;;;;;;;;4981560;28;20058;-87
2023/01/31 04:22:24;;;;;;;26.08;5.78;;;;;;;;;;4980876;28;20510;-87
2023/01/31 04:24:50;;;;;;;31.67;6.72;;;;;;;;;;4991413;28;20516;-87
2023/01/31 04:27:16;;;;;;;26.20;5.90;;;;;;;;;;5014380;28;20054;-87
2023/01/31 04:29:42;;;;;;;22.88;6.13;;;;;;;;;;4982194;28;20038;-87
2023/01/31 04:32:08;;;;;;;33.33;6.65;;;;;;;;;;5017126;28;20054;-82
2023/01/31 04:34:34;;;;;;;22.85;6.55;;;;;;;;;;4991060;28;20048;-87
2023/01/31 04:37:01;;;;;;;28.17;6.00;;;;;;;;;;5018004;28;20064;-87
2023/01/31 04:39:27;;;;;;;25.15;5.43;;;;;;;;;;5019350;28;20049;-86
2023/01/31 04:41:53;;;;;;;27.05;6.07;;;;;;;;;;4989224;28;20050;-88
2023/01/31 04:44:19;;;;;;;23.85;5.00;;;;;;;;;;4977247;28;20086;-86
2023/01/31 04:46:48;;;;;;;24.02;5.43;;;;;;;;;;4987053;28;20085;-87
2023/01/31 04:49:14;;;;;;;20.48;5.25;;;;;;;;;;4985585;28;20501;-87
2023/01/31 04:51:40;;;;;;;19.42;5.13;;;;;;;;;;4982590;28;20486;-87
2023/01/31 04:54:06;;;;;;;24.48;5.57;;;;;;;;;;4980004;28;20390;-86
2023/01/31 04:56:32;;;;;;;19.70;4.90;;;;;;;;;;4983191;28;20037;-87
2023/01/31 04:58:59;;;;;;;16.13;4.47;;;;;;;;;;5008650;28;20054;-87
2023/01/31 05:01:25;;;;;;;26.95;6.05;;;;;;;;;;5010255;28;20043;-87
2023/01/31 05:03:51;;;;;;;27.55;6.07;;;;;;;;;;5020462;28;20046;-87
2023/01/31 05:06:17;;;;;;;22.10;6.40;;;;;;;;;;4985263;28;20038;-87
2023/01/31 05:08:43;;;;;;;23.48;6.07;;;;;;;;;;4996682;28;20049;-87
2023/01/31 05:11:10;;;;;;;21.98;4.65;;;;;;;;;;4992383;28;20046;-87
2023/01/31 05:13:40;;;;;;;26.08;6.53;;;;;;;;;;4975929;28;20105;-86
2023/01/31 05:16:10;;;;;;;23.10;6.57;;;;;;;;;;4983154;28;20067;-88
2023/01/31 05:18:36;;;;;;;36.20;6.85;;;;;;;;;;5008864;28;20046;-87
2023/01/31 05:21:03;;;;;;;26.15;6.88;;;;;;;;;;4994227;28;20050;-87
2023/01/31 05:23:30;;;;;;;26.67;6.25;;;;;;;;;;4983001;28;20542;-87
2023/01/31 05:25:56;;;;;;;29.38;6.70;;;;;;;;;;4978103;28;20105;-87
2023/01/31 05:28:24;;;;;;;23.65;5.63;;;;;;;;;;4984758;28;20380;-87
2023/01/31 05:30:50;;;;;;;21.77;5.30;;;;;;;;;;5016222;28;20425;-86
2023/01/31 05:33:17;;;;;;;28.10;6.00;;;;;;;;;;4986846;28;20133;-86
2023/01/31 05:35:43;;;;;;;27.35;6.80;;;;;;;;;;4981210;28;20835;-86
2023/01/31 05:38:09;;;;;;;22.58;6.35;;;;;;;;;;4980588;28;20045;-86
2023/01/31 05:40:38;;;;;;;30.55;6.25;;;;;;;;;;4988989;28;20089;-86
2023/01/31 05:43:04;;;;;;;28.83;5.95;;;;;;;;;;4979323;28;20042;-86
2023/01/31 05:45:30;;;;;;;23.60;5.47;;;;;;;;;;4981287;28;20102;-84
2023/01/31 05:47:57;;;;;;;22.30;6.85;;;;;;;;;;4990971;28;20917;-87
2023/01/31 05:50:23;;;;;;;27.65;5.47;;;;;;;;;;4991851;28;20042;-86
2023/01/31 05:52:58;;;;;;;19.88;5.20;;;;;;;;;;4996607;28;20560;-87
2023/01/31 05:55:24;;;;;;;24.30;5.25;;;;;;;;;;4997351;28;20061;-87
2023/01/31 05:57:54;;;;;;;16.48;4.20;;;;;;;;;;4984471;28;20462;-87
2023/01/31 06:00:22;;;;;;;22.60;4.97;;;;;;;;;;4984207;28;20050;-87
2023/01/31 06:02:49;;;;;;;19.92;5.38;;;;;;;;;;4978118;28;20133;-87
2023/01/31 06:05:15;;;;;;;18.75;4.68;;;;;;;;;;4989852;28;20070;-87
2023/01/31 06:07:41;;;;;;;19.65;4.55;;;;;;;;;;5020140;28;20050;-88
2023/01/31 06:10:08;;;;;;;18.50;3.42;;;;;;;;;;4990839;28;20048;-88
2023/01/31 06:12:35;;;;;;;17.33;4.50;;;;;;;;;;4988334;28;20437;-87
2023/01/31 06:15:01;;;;;;;13.07;3.22;;;;;;;;;;4991101;28;20053;-88
2023/01/31 06:17:27;;;;;;;16.98;4.15;;;;;;;;;;4994119;28;20093;-87
2023/01/31 06:19:53;;;;;;;15.25;4.70;;;;;;;;;;4989767;28;20405;-87
2023/01/31 06:22:19;;;;;;;23.15;4.78;;;;;;;;;;4991867;28;20038;-86
2023/01/31 06:24:45;;;;;;;12.25;3.17;;;;;;;;;;4994645;28;20413;-87
2023/01/31 06:27:12;;;;;;;16.90;3.72;;;;;;;;;;4993947;28;20387;-88
2023/01/31 06:29:38;;;;;;;17.00;5.15;;;;;;;;;;4988917;28;20130;-87
2023/01/31 06:32:04;;;;;;;21.67;5.18;;;;;;;;;;4990111;28;20054;-87
2023/01/31 06:34:30;;;;;;;18.08;4.38;;;;;;;;;;4987669;28;20037;-86
2023/01/31 06:36:57;;;;;;;20.98;4.50;;;;;;;;;;4991445;28;20035;-86
2023/01/31 06:39:24;;;;;;;13.05;3.35;;;;;;;;;;4992171;28;20058;-86
2023/01/31 06:41:50;;;;;;;24.85;4.75;;;;;;;;;;4989867;28;20053;-88
2023/01/31 06:44:16;;;;;;;23.33;4.80;;;;;;;;;;4988152;28;20046;-88
2023/01/31 06:46:42;;;;;;;19.02;5.07;;;;;;;;;;4988057;28;20069;-87
2023/01/31 06:49:08;;;;;;;14.85;3.92;;;;;;;;;;4989893;28;20406;-87
2023/01/31 06:51:34;;;;;;;18.40;4.95;;;;;;;;;;4990800;28;20081;-87
2023/01/31 06:54:00;;;;;;;24.45;5.05;;;;;;;;;;4993746;28;20038;-89
2023/01/31 06:56:26;;;;;;;19.23;3.67;;;;;;;;;;4986096;28;20049;-86
2023/01/31 06:58:52;;;;;;;21.63;4.53;;;;;;;;;;4989694;28;20049;-87
2023/01/31 07:01:25;;;;;;;14.90;4.53;;;;;;;;;;4986606;28;20042;-86
2023/01/31 07:03:51;;;;;;;19.42;4.63;;;;;;;;;;4984665;28;20042;-86
2023/01/31 07:06:19;;;;;;;28.77;4.38;;;;;;;;;;4982940;28;20054;-86
2023/01/31 07:08:45;;;;;;;20.83;4.88;;;;;;;;;;5016720;28;20061;-87
2023/01/31 07:11:11;;;;;;;20.98;4.25;;;;;;;;;;4987479;28;20426;-87
2023/01/31 07:13:37;;;;;;;22.45;4.82;;;;;;;;;;4987455;28;20491;-87
2023/01/31 07:16:03;;;;;;;20.60;4.68;;;;;;;;;;5015623;28;20078;-86
2023/01/31 07:18:29;;;;;;;16.63;5.15;;;;;;;;;;4985562;28;20089;-86
2023/01/31 07:20:55;;;;;;;15.00;4.28;;;;;;;;;;4988976;28;20082;-87
2023/01/31 07:23:21;;;;;;;20.83;4.43;;;;;;;;;;4983777;28;20077;-87
2023/01/31 07:25:47;;;;;;;25.70;4.05;;;;;;;;;;4987144;28;20047;-88
2023/01/31 07:28:13;;;;;;;18.25;4.78;;;;;;;;;;4985357;28;20046;-87
2023/01/31 07:30:42;;;;;;;19.02;5.03;;;;;;;;;;4981777;28;20129;-88
2023/01/31 07:33:08;;;;;;;20.95;4.50;;;;;;;;;;4983384;28;20057;-88
2023/01/31 07:35:34;;;;;;;21.17;5.07;;;;;;;;;;4999116;28;20073;-88
2023/01/31 07:38:03;;;;;;;22.40;5.00;;;;;;;;;;5004987;28;20073;-88
2023/01/31 07:40:29;;;;;;;20.58;4.65;;;;;;;;;;5022697;28;20047;-87
2023/01/31 07:42:59;;;;;;;22.13;5.05;;;;;;;;;;4975722;28;20047;-87
2023/01/31 07:45:25;;;;;;;17.20;4.50;;;;;;;;;;4985112;28;20034;-87
2023/01/31 07:47:51;;;;;;;28.05;5.50;;;;;;;;;;4996102;28;20041;-87
2023/01/31 07:50:18;;;;;;;26.40;4.70;;;;;;;;;;5029651;28;20049;-85
2023/01/31 07:52:44;;;;;;;23.83;4.65;;;;;;;;;;4998974;28;20047;-86
2023/01/31 07:55:10;;;;;;;23.58;5.10;;;;;;;;;;5006994;28;20050;-87
2023/01/31 07:57:36;;;;;;;21.77;4.10;;;;;;;;;;5017371;28;20397;-88
2023/01/31 08:00:03;;;;;;;19.05;4.95;;;;;;;;;;4979640;28;20126;-87
2023/01/31 08:05:20;;;;;;;19.15;5.85;;;;;;;;;;4998068;28;20046;-86
2023/01/31 08:08:09;;;;;;;21.25;6.10;;;;;;;;;;4996461;28;20129;-86
2023/01/31 08:10:33;;;;;;;23.42;5.50;;;;;;;;;;4981082;28;20522;-84
2023/01/31 08:12:59;;;;;;;26.42;6.63;;;;;;;;;;4985052;28;20049;-87
2023/01/31 08:15:25;;;;;;;25.15;4.75;;;;;;;;;;5009792;28;20046;-87
2023/01/31 08:17:51;;;;;;;16.42;4.47;;;;;;;;;;5011501;28;20397;-88
2023/01/31 08:20:18;;;;;;;21.50;5.53;;;;;;;;;;4977865;28;20053;-88
2023/01/31 08:22:44;;;;;;;19.65;5.90;;;;;;;;;;5009532;28;21121;-87
2023/01/31 08:25:10;;;;;;;22.75;5.22;;;;;;;;;;5013774;28;20042;-85
2023/01/31 08:27:36;;;;;;;19.80;4.75;;;;;;;;;;4980728;28;20402;-86
2023/01/31 08:30:03;;;;;;;23.98;5.15;;;;;;;;;;5008066;28;20043;-86
2023/01/31 08:32:29;;;;;;;30.48;5.55;;;;;;;;;;4981696;28;20139;-86
2023/01/31 08:34:55;;;;;;;19.25;5.40;;;;;;;;;;4985086;28;20045;-86
2023/01/31 08:37:21;;;;;;;25.17;5.43;;;;;;;;;;4981459;28;20062;-86
2023/01/31 08:39:47;;;;;;;24.50;5.85;;;;;;;;;;4975030;28;20072;-85
2023/01/31 08:42:13;;;;;;;26.08;5.97;;;;;;;;;;5005921;28;20042;-86
2023/01/31 08:44:40;;;;;;;26.35;6.00;;;;;;;;;;4976121;28;20078;-85
2023/01/31 08:47:06;;;;;;;23.48;5.53;;;;;;;;;;4989348;28;20062;-88
2023/01/31 08:49:35;;;;;;;24.20;5.40;;;;;;;;;;5026093;28;20057;-84
2023/01/31 08:52:01;;;;;;;25.25;5.68;;;;;;;;;;5028847;28;20046;-86
2023/01/31 08:54:27;;;;;;;23.40;5.40;;;;;;;;;;5032074;28;20066;-84
2023/01/31 08:56:53;;;;;;;25.40;6.40;;;;;;;;;;5029879;28;20042;-84
2023/01/31 08:59:19;;;;;;;30.88;6.28;;;;;;;;;;5007148;28;20080;-82
2023/01/31 09:01:46;;;;;;;19.77;5.20;;;;;;;;;;4999587;28;20069;-85
2023/01/31 09:04:12;;;;;;;28.92;5.68;;;;;;;;;;4997295;28;20050;-85
2023/01/31 09:06:38;;;;;;;28.02;5.68;;;;;;;;;;4986791;28;20050;-86
2023/01/31 09:09:04;;;;;;;22.10;6.07;;;;;;;;;;4987515;28;20355;-88
2023/01/31 09:11:30;;;;;;;25.52;5.68;;;;;;;;;;4984737;28;20058;-88
2023/01/31 09:13:57;;;;;;;23.25;5.55;;;;;;;;;;4987694;28;20414;-89
2023/01/31 09:16:23;;;;;;;31.92;6.18;;;;;;;;;;4976845;28;20403;-87
2023/01/31 09:18:49;;;;;;;21.20;5.00;;;;;;;;;;4982325;28;20062;-88
2023/01/31 09:21:16;;;;;;;18.20;4.47;;;;;;;;;;5014532;28;20049;-86
2023/01/31 09:23:42;;;;;;;24.58;6.57;;;;;;;;;;5013698;28;20405;-89
2023/01/31 09:26:08;;;;;;;30.45;5.63;;;;;;;;;;4989282;28;20042;-88
2023/01/31 09:28:34;;;;;;;23.90;5.65;;;;;;;;;;4988953;28;20047;-88
2023/01/31 09:31:08;;;;;;;18.02;4.68;;;;;;;;;;4977215;28;20078;-87
2023/01/31 09:33:34;;;;;;;;;;;;;;;;;;4982890;28;20537;-88
2023/01/31 09:36:01;;;;;;;25.30;5.13;;;;;;;;;;5022493;28;19922;-88
2023/01/31 09:38:27;;;;;;;17.13;3.85;;;;;;;;;;4994053;28;20039;-88
2023/01/31 09:40:57;;;;;;;20.55;4.72;;;;;;;;;;5009913;28;20055;-86
2023/01/31 09:43:25;;;;;;;17.35;3.95;;;;;;;;;;5022559;28;20062;-87
2023/01/31 09:45:53;;;;;;;22.40;4.32;;;;;;;;;;5020132;28;20557;-87
2023/01/31 09:48:21;;;;;;;20.13;5.18;;;;;;;;;;4982730;28;20050;-88
2023/01/31 09:50:54;;;;;;;23.33;4.85;;;;;;;;;;5016828;28;20046;-86
2023/01/31 09:53:22;;;;;;;17.45;4.50;;;;;;;;;;5010341;28;20108;-86
2023/01/31 09:56:00;;;;;;;18.08;4.82;;;;;;;;;;4980097;28;20061;-85
2023/01/31 09:58:44;;;;;;;20.02;5.38;;;;;;;;;;4982105;28;20439;-86
2023/01/31 10:01:10;;;;;;;19.27;4.28;;;;;;;;;;5004512;28;20095;-86
2023/01/31 10:03:55;;;;;;;14.68;4.65;;;;;;;;;;4994307;28;20474;-84
2023/01/31 10:06:23;;;;;;;16.75;4.50;;;;;;;;;;4983449;28;20129;-87
2023/01/31 10:09:10;;;;;;;16.10;4.53;;;;;;;;;;4986980;28;20499;-87
2023/01/31 10:11:54;;;;;;;16.60;4.72;;;;;;;;;;5017384;28;20133;-86
2023/01/31 10:14:20;;;;;;;;;;;;;;;;;;4987721;28;20508;-86
2023/01/31 10:16:51;;;;;;;20.10;4.70;;;;;;;;;;4982733;28;19929;-86
2023/01/31 10:19:24;;;;;;;25.17;5.10;;;;;;;;;;4991072;28;20043;-86
2023/01/31 10:22:02;;;;;;;20.67;5.25;;;;;;;;;;5012488;28;21138;-87
2023/01/31 10:24:37;;;;;;;15.13;3.75;;;;;;;;;;5015153;28;20054;-86
2023/01/31 10:27:05;;;;;;;18.80;4.55;;;;;;;;;;5015942;28;20105;-86
2023/01/31 10:29:40;;;;;;;16.33;3.58;;;;;;;;;;4980035;28;20061;-86
2023/01/31 10:32:25;;;;;;;22.52;5.13;;;;;;;;;;5026117;28;20105;-87
2023/01/31 10:34:55;;;;;;;19.35;4.40;;;;;;;;;;5027317;28;20074;-84
2023/01/31 10:37:31;;;;;;;20.77;4.43;;;;;;;;;;5007637;28;20046;-86
2023/01/31 10:40:06;;;;;;;19.40;5.28;;;;;;;;;;5006992;28;20048;-85
2023/01/31 10:42:34;;;;;;;20.77;4.45;;;;;;;;;;5039627;28;20078;-84
2023/01/31 10:45:15;;;;;;;19.75;4.85;;;;;;;;;;5021917;28;20054;-86
2023/01/31 10:47:51;;;;;;;24.50;6.25;;;;;;;;;;4999875;28;20177;-84
2023/01/31 10:50:19;;;;;;;18.42;5.15;;;;;;;;;;5001605;28;20073;-85
2023/01/31 10:53:04;;;;;;;21.42;4.47;;;;;;;;;;5000640;28;20049;-86
2023/01/31 10:55:41;;;;;;;15.20;4.05;;;;;;;;;;5008470;28;20065;-85
2023/01/31 10:58:13;;;;;;;21.20;4.65;;;;;;;;;;5003477;28;20038;-86
2023/01/31 11:00:39;;;;;;;18.52;4.65;;;;;;;;;;4995510;28;20057;-82
2023/01/31 11:03:05;;;;;;;20.17;4.53;;;;;;;;;;5029455;28;20056;-86
2023/01/31 11:05:32;;;;;;;24.10;5.28;;;;;;;;;;4999463;28;20045;-84
2023/01/31 11:08:00;;;;;;;20.20;4.28;;;;;;;;;;5000978;28;20288;-83
2023/01/31 11:10:27;;;;;;;19.67;4.25;;;;;;;;;;5002204;28;20102;-84
2023/01/31 11:13:03;;;;;;;12.90;4.30;;;;;;;;;;5001541;28;20057;-85
2023/01/31 11:15:34;;;;;;;24.55;5.45;;;;;;;;;;4989267;28;20054;-84
2023/01/31 11:18:00;;;;;;;17.05;4.70;;;;;;;;;;5016619;28;20046;-86
2023/01/31 11:20:36;;;;;;;24.83;5.38;;;;;;;;;;4980579;28;20101;-86
2023/01/31 11:23:04;;;;;;;26.65;4.85;;;;;;;;;;4986163;28;20053;-86
2023/01/31 11:25:31;;;;;;;24.17;5.70;;;;;;;;;;4981766;28;20054;-86
2023/01/31 11:28:00;;;;;;;17.00;4.78;;;;;;;;;;4984425;28;20065;-88
2023/01/31 11:30:28;;;;;;;16.80;4.28;;;;;;;;;;4986742;28;20152;-89
2023/01/31 11:32:54;;;;;;;16.63;4.50;;;;;;;;;;4986068;28;20137;-87
2023/01/31 11:35:25;;;;;;;14.55;4.70;;;;;;;;;;4981000;28;20105;-88
2023/01/31 11:37:59;;;;;;;22.17;4.47;;;;;;;;;;4977783;28;20053;-88
2023/01/31 11:40:33;;;;;;;22.17;4.50;;;;;;;;;;5015627;28;20054;-88
2023/01/31 11:43:18;;;;;;;21.30;4.97;;;;;;;;;;5012532;28;20052;-87
2023/01/31 11:45:45;;;;;;;19.27;4.00;;;;;;;;;;4981472;28;20053;-88
2023/01/31 11:48:12;;;;;;;20.13;5.00;;;;;;;;;;4987735;28;20389;-84
2023/01/31 11:50:42;;;;;;;18.05;4.40;;;;;;;;;;4984100;28;20133;-86
2023/01/31 11:53:17;;;;;;;17.08;4.63;;;;;;;;;;5017634;28;20042;-88
2023/01/31 11:55:43;;;;;;;19.27;4.85;;;;;;;;;;5011605;28;20056;-90
2023/01/31 11:58:33;;;;;;;18.88;4.50;;;;;;;;;;4987348;28;20034;-86
2023/01/31 12:01:02;;;;;;;15.88;4.85;;;;;;;;;;5000970;28;20060;-86
2023/01/31 12:03:28;;;;;;;18.25;4.28;;;;;;;;;;4999631;28;20050;-84
2023/01/31 12:06:02;;;;;;;18.00;5.47;;;;;;;;;;4992172;28;20097;-84
2023/01/31 12:08:28;;;;;;;16.33;5.25;;;;;;;;;;4994038;28;20043;-84
2023/01/31 12:10:55;;;;;;;18.08;4.38;;;;;;;;;;4979682;28;20050;-88
2023/01/31 12:13:22;;;;;;;19.23;4.28;;;;;;;;;;4992841;28;20195;-90
2023/01/31 12:15:51;;;;;;;23.77;4.13;;;;;;;;;;4979677;28;20757;-88
2023/01/31 12:18:24;;;;;;;15.57;4.07;;;;;;;;;;4980974;28;20042;-87
2023/01/31 12:20:59;;;;;;;15.77;4.55;;;;;;;;;;4986499;28;20042;-89
2023/01/31 12:23:48;;;;;;;18.10;5.13;;;;;;;;;;5012207;28;20062;-87
2023/01/31 12:26:22;;;;;;;13.50;4.55;;;;;;;;;;4985910;28;20509;-87
2023/01/31 12:29:07;;;;;;;19.63;5.07;;;;;;;;;;4991929;28;20046;-90
2023/01/31 12:31:39;;;;;;;16.88;5.10;;;;;;;;;;5021335;28;20070;-91
2023/01/31 12:34:14;;;;;;;18.55;4.50;;;;;;;;;;4992583;28;20043;-84
2023/01/31 12:36:43;;;;;;;19.67;4.90;;;;;;;;;;4987402;28;20049;-84
2023/01/31 12:39:12;;;;;;;21.83;5.18;;;;;;;;;;5004506;28;20052;-87
2023/01/31 12:41:57;;;;;;;23.92;4.88;;;;;;;;;;5007785;28;20136;-89
2023/01/31 12:44:35;;;;;;;13.50;4.38;;;;;;;;;;4989854;28;20056;-90
2023/01/31 12:47:38;;;;;;;14.90;3.53;;;;;;;;;;4997346;28;20041;-90
2023/01/31 12:50:19;;;;;;;22.02;4.93;;;;;;;;;;5024967;28;20085;-89
2023/01/31 12:53:11;;;;;;;16.08;4.00;;;;;;;;;;4988934;28;20526;-89
2023/01/31 12:56:07;;;;;;;19.20;4.55;;;;;;;;;;5012799;28;20077;-89
2023/01/31 12:58:33;;;;;;;21.92;5.32;;;;;;;;;;4981942;28;20053;-89
2023/01/31 13:01:09;;;;;;;13.68;4.80;;;;;;;;;;4983649;28;20046;-90
2023/01/31 13:03:41;;;;;;;17.17;4.50;;;;;;;;;;5012257;28;20047;-90
2023/01/31 13:06:23;;;;;;;18.13;4.72;;;;;;;;;;5016930;28;20046;-91
2023/01/31 13:08:55;;;;;;;18.17;4.53;;;;;;;;;;4988685;28;20117;-89
2023/01/31 13:11:27;;;;;;;17.42;4.03;;;;;;;;;;4994917;28;20073;-89
2023/01/31 13:13:55;;;;;;;18.42;4.82;;;;;;;;;;4989721;28;20077;-90
2023/01/31 13:16:26;;;;;;;16.13;4.65;;;;;;;;;;4973998;28;20811;-90
2023/01/31 13:18:54;;;;;;;15.52;5.47;;;;;;;;;;4984588;28;20083;-89
2023/01/31 13:21:25;;;;;;;14.55;4.75;;;;;;;;;;4988369;28;20054;-91
2023/01/31 13:23:54;;;;;;;16.08;4.45;;;;;;;;;;4987896;28;20073;-90
2023/01/31 13:26:27;;;;;;;18.77;4.28;;;;;;;;;;5011955;28;20054;-89
2023/01/31 13:29:00;;;;;;;18.10;4.40;;;;;;;;;;4979962;28;20498;-90
2023/01/31 13:31:27;;;;;;;17.77;4.75;;;;;;;;;;4997753;28;20134;-89
2023/01/31 13:33:53;;;;;;;12.98;3.92;;;;;;;;;;4989686;28;20058;-89
2023/01/31 13:36:31;;;;;;;16.33;4.43;;;;;;;;;;4987071;28;20101;-89
2023/01/31 13:39:00;;;;;;;18.38;4.65;;;;;;;;;;4979819;28;20064;-90
2023/01/31 13:41:26;;;;;;;19.20;5.28;;;;;;;;;;5016854;28;20066;-90
2023/01/31 13:43:52;;;;;;;20.50;5.18;;;;;;;;;;4986912;28;20038;-90
2023/01/31 13:46:21;;;;;;;21.30;5.40;;;;;;;;;;4988221;28;20042;-90
2023/01/31 13:48:51;;;;;;;19.65;4.93;;;;;;;;;;5027406;28;20062;-88
2023/01/31 13:51:24;;;;;;;16.85;5.65;;;;;;;;;;4983167;28;20782;-90
2023/01/31 13:54:01;;;;;;;20.42;5.20;;;;;;;;;;4993210;28;20041;-88
2023/01/31 13:56:35;;;;;;;16.33;4.70;;;;;;;;;;4988727;28;20076;-89
2023/01/31 13:59:07;;;;;;;21.02;6.10;;;;;;;;;;4983279;28;20045;-90
2023/01/31 14:01:35;;;;;;;28.40;5.03;;;;;;;;;;4995006;28;20046;-89
2023/01/31 14:04:16;;;;;;;20.90;5.38;;;;;;;;;;4990490;28;20054;-91
2023/01/31 14:06:54;;;;;;;24.23;6.30;;;;;;;;;;4981121;28;20057;-90
2023/01/31 14:09:37;;;;;;;30.30;5.97;;;;;;;;;;4985578;28;20042;-90
2023/01/31 14:12:06;;;;;;;25.83;5.45;;;;;;;;;;4983653;28;20050;-89
2023/01/31 14:14:41;;;;;;;26.92;6.47;;;;;;;;;;5002737;28;20336;-89
2023/01/31 14:17:14;;;;;;;20.63;4.97;;;;;;;;;;4983712;28;20133;-88
2023/01/31 14:19:46;;;;;;;21.52;5.00;;;;;;;;;;4988171;28;20077;-88
2023/01/31 14:22:15;;;;;;;22.42;5.32;;;;;;;;;;4978724;28;20061;-89
2023/01/31 14:24:55;;;;;;;19.83;6.25;;;;;;;;;;4987679;28;20038;-89
2023/01/31 14:27:24;;;;;;;22.02;5.53;;;;;;;;;;5020432;28;20174;-86
2023/01/31 14:29:56;;;;;;;21.48;6.03;;;;;;;;;;5033409;28;20050;-85
2023/01/31 14:32:49;;;;;;;22.20;5.38;;;;;;;;;;5030295;28;20078;-90
2023/01/31 14:35:15;;;;;;;27.27;6.13;;;;;;;;;;4984942;28;20050;-86
2023/01/31 14:38:00;;;;;;;25.00;5.10;;;;;;;;;;4994586;28;20428;-89
2023/01/31 14:40:33;;;;;;;29.25;6.70;;;;;;;;;;5020093;28;20121;-88
2023/01/31 14:43:02;;;;;;;34.05;5.95;;;;;;;;;;4984459;28;20039;-86
2023/01/31 14:45:34;;;;;;;20.92;5.18;;;;;;;;;;4988862;28;20405;-88
2023/01/31 14:48:19;;;;;;;28.00;6.77;;;;;;;;;;5022993;28;20105;-85